createdAt,value
2019-05-11T00:00:51.813Z,9.58
2019-05-11T00:03:20.209Z,9.30
2019-05-11T00:05:48.871Z,8.30
2019-05-11T00:08:17.351Z,7.85
2019-05-11T00:10:45.814Z,7.92
2019-05-11T00:13:14.212Z,9.20
2019-05-11T00:15:42.657Z,10.03
2019-05-11T00:18:12.069Z,8.75
2019-05-11T00:20:40.505Z,9.38
2019-05-11T00:23:08.925Z,9.78
2019-05-11T00:25:37.345Z,8.78
2019-05-11T00:28:05.910Z,10.98
2019-05-11T00:30:34.504Z,8.65
2019-05-11T00:33:02.907Z,8.58
2019-05-11T00:35:31.354Z,8.68
2019-05-11T00:37:59.769Z,9.75
2019-05-11T00:40:28.272Z,10.55
2019-05-11T00:42:56.678Z,9.25
2019-05-11T00:45:25.086Z,9.33
2019-05-11T00:47:53.498Z,10.35
2019-05-11T00:50:36.786Z,8.85
2019-05-11T00:52:52.078Z,9.70
2019-05-11T00:55:20.551Z,9.75
2019-05-11T00:57:48.973Z,9.08
2019-05-11T01:00:17.931Z,10.38
2019-05-11T01:02:46.441Z,10.18
2019-05-11T01:05:14.968Z,10.68
2019-05-11T01:07:43.457Z,10.38
2019-05-11T01:10:25.291Z,11.43
2019-05-11T01:12:42.384Z,9.33
2019-05-11T01:15:12.453Z,9.98
2019-05-11T01:17:40.862Z,10.35
2019-05-11T01:20:09.515Z,9.58
2019-05-11T01:22:37.921Z,10.70
2019-05-11T01:25:06.531Z,11.18
2019-05-11T01:27:35.183Z,8.80
2019-05-11T01:30:04.173Z,9.68
2019-05-11T01:32:32.576Z,10.63
2019-05-11T01:35:00.994Z,9.90
2019-05-11T01:37:29.507Z,9.50
2019-05-11T01:39:57.920Z,11.75
2019-05-11T01:42:26.350Z,10.28
2019-05-11T01:44:55.673Z,9.53
2019-05-11T01:47:24.113Z,9.33
2019-05-11T01:49:52.541Z,10.63
2019-05-11T01:52:20.962Z,11.17
2019-05-11T01:54:49.573Z,10.17
2019-05-11T01:57:18.029Z,12.25
2019-05-11T01:59:46.440Z,9.98
2019-05-11T02:02:14.881Z,8.98
2019-05-11T02:04:43.294Z,9.30
2019-05-11T02:07:11.710Z,10.20
2019-05-11T02:09:40.105Z,8.70
2019-05-11T02:12:08.537Z,8.48
2019-05-11T02:14:37.314Z,9.67
2019-05-11T02:17:05.723Z,9.07
2019-05-11T02:19:34.126Z,9.08
2019-05-11T02:22:02.805Z,8.13
2019-05-11T02:24:31.209Z,9.08
2019-05-11T02:26:59.678Z,9.53
2019-05-11T02:29:28.113Z,10.60
2019-05-11T02:31:56.583Z,9.78
2019-05-11T02:34:25.019Z,10.75
2019-05-11T02:36:53.434Z,11.97
2019-05-11T02:39:21.857Z,11.48
2019-05-11T02:41:50.841Z,10.50
2019-05-11T02:44:19.286Z,12.20
2019-05-11T02:46:47.681Z,11.73
2019-05-11T02:49:16.127Z,12.60
2019-05-11T02:51:45.466Z,12.10
2019-05-11T02:54:14.109Z,9.85
2019-05-11T02:56:42.533Z,11.88
2019-05-11T02:59:10.946Z,10.35
2019-05-11T03:01:39.362Z,11.15
2019-05-11T03:04:07.778Z,10.83
2019-05-11T03:06:36.183Z,11.95
2019-05-11T03:09:06.318Z,11.63
2019-05-11T03:11:52.841Z,11.80
2019-05-11T03:14:05.451Z,10.18
2019-05-11T03:16:33.870Z,10.25
2019-05-11T03:19:02.279Z,10.58
2019-05-11T03:21:30.838Z,12.03
2019-05-11T03:23:59.275Z,12.55
2019-05-11T03:26:27.686Z,10.58
2019-05-11T03:28:56.286Z,12.30
2019-05-11T03:31:24.700Z,11.35
2019-05-11T03:33:53.125Z,12.07
2019-05-11T03:36:21.548Z,12.45
2019-05-11T03:38:49.951Z,10.35
2019-05-11T03:41:18.384Z,11.88
2019-05-11T03:43:46.841Z,11.15
2019-05-11T03:46:15.305Z,10.95
2019-05-11T03:48:43.717Z,12.37
2019-05-11T03:51:12.182Z,12.17
2019-05-11T03:53:40.681Z,10.68
2019-05-11T03:56:09.146Z,12.58
2019-05-11T03:58:37.571Z,10.40
2019-05-11T04:01:05.995Z,9.55
2019-05-11T04:03:34.403Z,11.38
2019-05-11T04:06:02.830Z,12.43
2019-05-11T04:08:31.708Z,11.35
2019-05-11T04:11:00.523Z,9.35
2019-05-11T04:13:28.934Z,10.72
2019-05-11T04:15:57.347Z,10.10
2019-05-11T04:18:25.761Z,11.48
2019-05-11T04:20:54.175Z,10.05
2019-05-11T04:23:22.901Z,10.78
2019-05-11T04:25:51.339Z,9.93
2019-05-11T04:28:19.753Z,10.07
2019-05-11T04:30:48.155Z,9.75
2019-05-11T04:33:16.588Z,10.32
2019-05-11T04:35:44.986Z,9.58
2019-05-11T04:38:13.399Z,8.50
2019-05-11T04:40:41.801Z,8.08
2019-05-11T04:43:10.220Z,8.28
2019-05-11T04:45:38.874Z,9.70
2019-05-11T04:48:07.630Z,9.20
2019-05-11T04:50:36.054Z,8.53
2019-05-11T04:53:04.483Z,10.95
2019-05-11T04:55:32.915Z,9.25
2019-05-11T04:58:01.383Z,9.50
2019-05-11T05:00:29.783Z,9.60
2019-05-11T05:02:58.279Z,11.30
2019-05-11T05:05:26.734Z,11.08
2019-05-11T05:08:08.502Z,10.60
2019-05-11T05:10:25.710Z,10.63
2019-05-11T05:13:08.543Z,13.70
2019-05-11T05:15:24.306Z,11.90
2019-05-11T05:17:52.724Z,12.63
2019-05-11T05:20:21.136Z,14.07
2019-05-11T05:22:49.553Z,12.03
2019-05-11T05:25:17.966Z,14.00
2019-05-11T05:27:46.662Z,12.80
2019-05-11T05:30:15.706Z,13.18
2019-05-11T05:32:44.733Z,13.58
2019-05-11T05:35:13.323Z,13.48
2019-05-11T05:37:41.746Z,15.43
2019-05-11T05:40:10.295Z,17.25
2019-05-11T05:42:38.710Z,15.38
2019-05-11T05:45:07.798Z,12.90
2019-05-11T05:47:36.228Z,13.85
2019-05-11T05:50:06.288Z,18.70
2019-05-11T05:52:34.710Z,15.07
2019-05-11T05:55:03.689Z,16.55
2019-05-11T05:57:32.186Z,14.65
2019-05-11T06:00:00.824Z,15.93
2019-05-11T06:02:29.247Z,15.85
2019-05-11T06:04:57.677Z,14.95
2019-05-11T06:07:26.251Z,18.82
2019-05-11T06:09:55.954Z,15.55
2019-05-11T06:12:24.371Z,13.80
2019-05-11T06:14:52.804Z,15.80
2019-05-11T06:17:21.228Z,41.02
2019-05-11T06:19:49.899Z,18.03
2019-05-11T06:22:18.339Z,17.37
2019-05-11T06:24:46.785Z,17.85
2019-05-11T06:27:15.185Z,15.80
2019-05-11T06:29:43.616Z,12.70
2019-05-11T06:32:12.070Z,15.08
2019-05-11T06:34:40.504Z,13.83
2019-05-11T06:37:08.998Z,14.05
2019-05-11T06:39:37.512Z,12.63
2019-05-11T06:42:06.004Z,12.35
2019-05-11T06:44:34.429Z,13.40
2019-05-11T06:47:02.843Z,13.95
2019-05-11T06:49:31.275Z,12.50
2019-05-11T06:51:59.774Z,16.07
2019-05-11T06:54:28.215Z,13.88
2019-05-11T06:56:56.695Z,13.18
2019-05-11T06:59:25.123Z,13.70
2019-05-11T07:01:53.570Z,12.45
2019-05-11T07:04:21.993Z,14.70
2019-05-11T07:06:50.453Z,11.73
2019-05-11T07:09:19.059Z,12.00
2019-05-11T07:11:47.470Z,11.40
2019-05-11T07:14:20.398Z,11.95
2019-05-11T07:16:46.085Z,11.83
2019-05-11T07:19:14.569Z,12.78
2019-05-11T07:21:42.983Z,11.55
2019-05-11T07:24:11.431Z,11.97
2019-05-11T07:26:39.888Z,10.72
2019-05-11T07:29:08.322Z,9.83
2019-05-11T07:31:36.767Z,8.23
2019-05-11T07:34:07.993Z,10.05
2019-05-11T07:36:35.621Z,10.53
2019-05-11T07:39:08.144Z,10.58
2019-05-11T07:41:38.499Z,7.53
2019-05-11T07:44:06.214Z,8.68
2019-05-11T07:46:34.692Z,8.83
2019-05-11T07:49:03.200Z,7.83
2019-05-11T07:51:31.654Z,7.55
2019-05-11T07:54:00.086Z,8.23
2019-05-11T07:56:28.697Z,8.60
2019-05-11T07:58:58.059Z,7.73
2019-05-11T08:01:28.255Z,9.73
2019-05-11T08:03:58.587Z,7.67
2019-05-11T08:06:28.560Z,9.10
2019-05-11T08:08:58.807Z,7.65
2019-05-11T08:11:30.703Z,7.33
2019-05-11T08:13:58.448Z,6.95
2019-05-11T08:16:28.631Z,7.87
2019-05-11T08:18:58.847Z,6.47
2019-05-11T08:21:28.379Z,7.23
2019-05-11T08:23:58.710Z,6.83
2019-05-11T08:26:28.259Z,8.03
2019-05-11T08:28:57.985Z,7.40
2019-05-11T08:31:27.980Z,8.43
2019-05-11T08:33:58.367Z,8.85
2019-05-11T08:36:28.929Z,8.35
2019-05-11T08:38:58.597Z,8.70
2019-05-11T08:41:28.116Z,10.50
2019-05-11T08:43:58.703Z,10.25
2019-05-11T08:46:27.994Z,9.50
2019-05-11T08:48:59.540Z,10.55
2019-05-11T08:51:28.115Z,9.05
2019-05-11T08:53:58.328Z,10.75
2019-05-11T08:56:28.870Z,12.03
2019-05-11T08:58:58.851Z,10.70
2019-05-11T09:01:28.734Z,11.85
2019-05-11T09:03:58.384Z,11.33
2019-05-11T09:06:28.375Z,12.70
2019-05-11T09:08:58.314Z,14.13
2019-05-11T09:11:28.393Z,15.23
2019-05-11T09:13:57.877Z,15.55
2019-05-11T09:16:28.908Z,14.00
2019-05-11T09:18:58.126Z,15.68
2019-05-11T09:21:28.144Z,16.07
2019-05-11T09:23:57.884Z,16.67
2019-05-11T09:26:28.537Z,17.55
2019-05-11T09:28:58.193Z,15.90
2019-05-11T09:31:27.996Z,16.90
2019-05-11T09:33:58.371Z,17.05
2019-05-11T09:36:28.530Z,19.17
2019-05-11T09:38:58.149Z,18.25
2019-05-11T09:41:28.971Z,18.90
2019-05-11T09:43:58.716Z,19.67
2019-05-11T09:46:27.961Z,19.00
2019-05-11T09:48:58.914Z,19.73
2019-05-11T09:51:28.713Z,23.37
2019-05-11T09:53:58.779Z,21.53
2019-05-11T09:56:28.714Z,21.90
2019-05-11T09:58:58.190Z,22.67
2019-05-11T10:01:29.478Z,25.87
2019-05-11T10:03:58.509Z,25.43
2019-05-11T10:06:28.157Z,30.37
2019-05-11T10:08:57.878Z,27.58
2019-05-11T10:11:28.275Z,32.73
2019-05-11T10:13:57.809Z,35.33
2019-05-11T10:16:28.100Z,38.17
2019-05-11T10:18:58.997Z,35.08
2019-05-11T10:21:27.810Z,37.95
2019-05-11T10:23:57.986Z,36.30
2019-05-11T10:26:27.873Z,37.17
2019-05-11T10:28:58.309Z,39.23
2019-05-11T10:31:28.517Z,41.15
2019-05-11T10:33:58.024Z,43.10
2019-05-11T10:36:28.030Z,42.13
2019-05-11T10:38:58.671Z,41.97
2019-05-11T10:41:28.506Z,41.03
2019-05-11T10:43:58.054Z,42.30
2019-05-11T10:46:28.761Z,38.73
2019-05-11T10:48:58.661Z,40.35
2019-05-11T10:51:28.854Z,37.65
2019-05-11T10:53:57.746Z,40.27
2019-05-11T10:56:28.380Z,35.68
2019-05-11T10:58:58.646Z,38.30
2019-05-11T11:01:28.525Z,38.60
2019-05-11T11:03:58.670Z,35.73
2019-05-11T11:06:28.142Z,35.57
2019-05-11T11:08:57.853Z,38.33
2019-05-11T11:11:27.756Z,37.23
2019-05-11T11:13:58.306Z,36.03
2019-05-11T11:16:36.855Z,36.65
2019-05-11T11:18:58.716Z,34.27
2019-05-11T11:21:27.857Z,36.80
2019-05-11T11:23:58.567Z,35.23
2019-05-11T11:26:28.540Z,33.57
2019-05-11T11:28:58.107Z,32.03
2019-05-11T11:31:28.689Z,32.38
2019-05-11T11:33:58.501Z,30.67
2019-05-11T11:36:28.327Z,30.50
2019-05-11T11:38:58.322Z,26.77
2019-05-11T11:41:29.907Z,28.14
2019-05-11T11:43:58.632Z,26.87
2019-05-11T11:46:27.802Z,25.48
2019-05-11T11:48:58.131Z,24.60
2019-05-11T11:51:28.065Z,27.90
2019-05-11T11:53:58.379Z,25.13
2019-05-11T11:56:28.347Z,24.97
2019-05-11T11:58:57.963Z,23.25
2019-05-11T12:01:28.077Z,25.88
2019-05-11T12:03:58.076Z,19.95
2019-05-11T12:06:28.045Z,23.25
2019-05-11T12:08:58.520Z,19.90
2019-05-11T12:11:27.909Z,17.52
2019-05-11T12:13:57.946Z,16.65
2019-05-11T12:16:28.145Z,18.65
2019-05-11T12:18:57.805Z,17.70
2019-05-11T12:21:27.751Z,17.65
2019-05-11T12:23:58.366Z,16.73
2019-05-11T12:26:28.160Z,16.77
2019-05-11T12:28:57.717Z,15.78
2019-05-11T12:31:28.578Z,14.93
2019-05-11T12:33:58.487Z,15.32
2019-05-11T12:36:28.097Z,17.20
2019-05-11T12:38:58.069Z,16.67
2019-05-11T12:41:28.017Z,15.47
2019-05-11T12:43:57.760Z,16.50
2019-05-11T12:46:27.694Z,15.20
2019-05-11T12:48:57.258Z,15.68
2019-05-11T12:51:27.685Z,13.70
2019-05-11T12:53:57.656Z,12.93
2019-05-11T12:56:27.772Z,15.40
2019-05-11T12:58:58.234Z,16.90
2019-05-11T13:01:28.910Z,14.70
2019-05-11T13:03:58.077Z,14.50
2019-05-11T13:06:27.940Z,15.20
2019-05-11T13:08:58.595Z,15.45
2019-05-11T13:11:28.447Z,15.43
2019-05-11T13:13:58.536Z,13.32
2019-05-11T13:16:28.823Z,13.98
2019-05-11T13:18:57.655Z,14.17
2019-05-11T13:21:28.515Z,15.25
2019-05-11T13:23:57.712Z,15.35
2019-05-11T13:26:28.281Z,16.95
2019-05-11T13:28:58.354Z,14.98
2019-05-11T13:31:27.818Z,11.70
2019-05-11T13:33:58.535Z,12.68
2019-05-11T13:36:28.509Z,11.63
2019-05-11T13:38:58.740Z,14.28
2019-05-11T13:41:28.062Z,13.10
2019-05-11T13:43:57.714Z,12.60
2019-05-11T13:46:28.165Z,11.90
2019-05-11T13:48:57.947Z,12.80
2019-05-11T13:51:28.398Z,14.20
2019-05-11T13:53:58.485Z,12.30
2019-05-11T13:56:28.515Z,11.43
2019-05-11T13:58:59.049Z,12.90
2019-05-11T14:01:27.898Z,11.35
2019-05-11T14:03:58.369Z,13.88
2019-05-11T14:06:28.778Z,13.90
2019-05-11T14:08:58.662Z,12.37
2019-05-11T14:11:28.632Z,13.20
2019-05-11T14:13:58.455Z,13.55
2019-05-11T14:16:27.575Z,12.18
2019-05-11T14:18:57.814Z,12.78
2019-05-11T14:21:27.978Z,13.80
2019-05-11T14:23:58.650Z,12.65
2019-05-11T14:26:28.045Z,12.18
2019-05-11T14:28:58.230Z,11.40
2019-05-11T14:31:28.049Z,13.62
2019-05-11T14:33:57.918Z,10.80
2019-05-11T14:36:28.239Z,11.35
2019-05-11T14:38:57.813Z,11.40
2019-05-11T14:41:28.491Z,12.15
2019-05-11T14:43:57.945Z,11.10
2019-05-11T14:46:27.889Z,11.33
2019-05-11T14:48:58.525Z,11.70
2019-05-11T14:51:30.011Z,10.35
2019-05-11T14:53:59.467Z,10.40
2019-05-11T14:56:28.066Z,10.32
2019-05-11T14:58:58.021Z,12.70
2019-05-11T15:01:28.617Z,8.75
2019-05-11T15:03:58.891Z,11.85
2019-05-11T15:06:27.923Z,9.45
2019-05-11T15:08:58.214Z,9.90
2019-05-11T15:11:28.064Z,8.68
2019-05-11T15:13:57.564Z,10.30
2019-05-11T15:16:27.903Z,10.00
2019-05-11T15:18:59.320Z,8.07
2019-05-11T15:21:28.131Z,12.10
2019-05-11T15:23:58.100Z,7.35
2019-05-11T15:26:27.756Z,10.48
2019-05-11T15:28:58.394Z,9.65
2019-05-11T15:31:27.834Z,12.60
2019-05-11T15:33:57.753Z,7.92
2019-05-11T15:36:28.380Z,8.83
2019-05-11T15:38:58.237Z,9.78
2019-05-11T15:41:28.143Z,10.08
2019-05-11T15:43:57.938Z,7.28
2019-05-11T15:46:28.210Z,8.10
2019-05-11T15:49:03.083Z,8.95
2019-05-11T15:51:28.979Z,7.65
2019-05-11T15:53:58.730Z,10.45
2019-05-11T15:56:27.997Z,6.92
2019-05-11T15:58:57.823Z,7.12
2019-05-11T16:01:28.755Z,9.00
2019-05-11T16:03:58.256Z,6.62
2019-05-11T16:06:28.447Z,6.40
2019-05-11T16:08:58.609Z,7.33
2019-05-11T16:11:28.396Z,6.83
2019-05-11T16:13:58.631Z,7.30
2019-05-11T16:16:28.112Z,8.18
2019-05-11T16:19:08.605Z,7.17
2019-05-11T16:21:28.585Z,8.63
2019-05-11T16:23:58.513Z,8.40
2019-05-11T16:26:28.083Z,9.65
2019-05-11T16:28:58.187Z,7.83
2019-05-11T16:31:28.445Z,16.50
2019-05-11T16:33:58.923Z,12.03
2019-05-11T16:36:28.447Z,10.28
2019-05-11T16:38:56.960Z,13.98
2019-05-11T16:41:25.441Z,8.70
2019-05-11T16:43:54.206Z,10.63
2019-05-11T16:46:22.611Z,12.53
2019-05-11T16:48:51.066Z,10.63
2019-05-11T16:51:19.557Z,13.30
2019-05-11T16:53:48.674Z,10.10
2019-05-11T16:56:19.532Z,10.70
2019-05-11T16:58:48.460Z,11.28
2019-05-11T17:01:18.851Z,11.35
2019-05-11T17:03:48.200Z,10.50
2019-05-11T17:06:16.805Z,13.68
2019-05-11T17:08:45.260Z,9.83
2019-05-11T17:13:54.474Z,9.78
2019-05-11T17:16:22.901Z,11.60
2019-05-11T17:18:51.329Z,11.05
2019-05-11T17:21:19.880Z,10.10
2019-05-11T17:23:48.928Z,8.68
2019-05-11T17:26:19.045Z,9.28
2019-05-11T17:28:48.923Z,8.40
2019-05-11T17:31:18.839Z,8.55
2019-05-11T17:33:47.743Z,10.03
2019-05-11T17:36:18.522Z,8.90
2019-05-11T17:38:47.914Z,8.65
2019-05-11T17:41:16.644Z,10.08
2019-05-11T17:43:45.077Z,9.98
2019-05-11T17:46:13.501Z,9.78
2019-05-11T17:48:41.931Z,9.28
2019-05-11T17:51:21.381Z,9.95
2019-05-11T17:53:41.692Z,12.27
2019-05-11T17:56:10.125Z,11.63
2019-05-11T17:58:38.558Z,8.78
2019-05-11T18:01:09.367Z,10.03
2019-05-11T18:03:38.488Z,9.73
2019-05-11T18:06:08.514Z,7.90
2019-05-11T18:08:37.564Z,12.58
2019-05-11T18:11:08.171Z,8.73
2019-05-11T18:13:36.134Z,11.15
2019-05-11T18:16:04.630Z,11.93
2019-05-11T18:18:33.033Z,11.28
2019-05-11T18:21:01.543Z,9.78
2019-05-11T18:23:30.003Z,13.10
2019-05-11T18:25:58.451Z,10.18
2019-05-11T18:28:29.037Z,9.88
2019-05-11T18:30:58.251Z,11.93
2019-05-11T18:33:27.703Z,11.80
2019-05-11T18:35:58.307Z,11.53
2019-05-11T18:38:27.666Z,13.90
2019-05-11T18:40:58.000Z,10.98
2019-05-11T18:43:28.068Z,8.38
2019-05-11T18:45:58.151Z,9.77
2019-05-11T18:48:29.112Z,11.37
2019-05-11T18:50:58.900Z,9.57
2019-05-11T18:53:28.861Z,8.33
2019-05-11T18:55:59.077Z,5.37
2019-05-11T18:58:27.952Z,7.37
2019-05-11T19:00:56.647Z,6.17
2019-05-11T19:03:25.058Z,3.95
2019-05-11T19:05:53.547Z,4.42
2019-05-11T19:08:21.972Z,5.40
2019-05-11T19:10:50.558Z,3.62
2019-05-11T19:13:18.974Z,5.95
2019-05-11T19:15:48.657Z,4.97
2019-05-11T19:18:17.302Z,5.37
2019-05-11T19:20:49.070Z,7.72
2019-05-11T19:23:15.899Z,4.57
2019-05-11T19:25:44.302Z,3.75
2019-05-11T19:28:13.629Z,3.83
2019-05-11T19:30:42.072Z,4.25
2019-05-11T19:33:11.134Z,5.72
2019-05-11T19:35:39.918Z,3.87
2019-05-11T19:38:08.781Z,8.33
2019-05-11T19:40:38.347Z,4.55
2019-05-11T19:43:08.322Z,5.87
2019-05-11T19:45:38.467Z,3.70
2019-05-11T19:48:08.348Z,3.92
2019-05-11T19:50:40.347Z,5.22
2019-05-11T19:53:08.441Z,7.12
2019-05-11T19:55:37.155Z,4.87
2019-05-11T19:58:05.666Z,5.33
2019-05-11T20:00:34.160Z,5.42
2019-05-11T20:03:02.676Z,5.65
2019-05-11T20:05:31.525Z,7.12
2019-05-11T20:08:00.133Z,6.35
2019-05-11T20:10:28.557Z,7.30
2019-05-11T20:12:58.727Z,4.87
2019-05-11T20:15:27.487Z,5.63
2019-05-11T20:17:55.919Z,6.40
2019-05-11T20:20:24.443Z,4.37
2019-05-11T20:22:52.918Z,6.10
2019-05-11T20:25:21.361Z,7.47
2019-05-11T20:27:49.782Z,8.05
2019-05-11T20:30:19.134Z,9.50
2019-05-11T20:32:48.837Z,6.28
2019-05-11T20:35:17.807Z,5.65
2019-05-11T20:37:46.219Z,4.15
2019-05-11T20:40:14.971Z,6.25
2019-05-11T20:42:43.378Z,5.15
2019-05-11T20:45:12.136Z,7.90
2019-05-11T20:47:41.141Z,4.70
2019-05-11T20:50:10.136Z,8.93
2019-05-11T20:52:39.657Z,5.25
2019-05-11T20:55:08.843Z,4.75
2019-05-11T20:57:39.155Z,6.30
2019-05-11T21:00:10.315Z,5.33
2019-05-11T21:02:38.822Z,6.13
2019-05-11T21:05:09.103Z,3.50
2019-05-11T21:07:38.989Z,5.00
2019-05-11T21:10:08.982Z,3.55
2019-05-11T21:12:38.646Z,3.37
2019-05-11T21:15:09.193Z,3.10
2019-05-11T21:17:37.681Z,4.53
2019-05-11T21:20:08.140Z,4.33
2019-05-11T21:22:40.160Z,3.50
2019-05-11T21:25:10.321Z,2.00
2019-05-11T21:30:09.516Z,6.75
2019-05-11T21:32:41.478Z,3.50
2019-05-11T21:35:10.036Z,5.15
2019-05-11T21:37:39.151Z,5.35
2019-05-11T21:40:09.215Z,4.87
2019-05-11T21:42:38.963Z,6.80
2019-05-11T21:45:09.463Z,5.05
2019-05-11T21:47:39.572Z,5.25
2019-05-11T21:50:09.603Z,4.42
2019-05-11T21:52:38.850Z,4.80
2019-05-11T21:55:09.456Z,6.95
2019-05-11T21:57:38.270Z,4.23
2019-05-11T22:00:09.042Z,3.60
2019-05-11T22:02:38.474Z,3.60
2019-05-11T22:05:08.491Z,6.25
2019-05-11T22:07:38.743Z,5.35
2019-05-11T22:10:09.102Z,3.87
2019-05-11T22:12:38.708Z,4.83
2019-05-11T22:15:09.722Z,5.75
2019-05-11T22:17:39.589Z,4.27
2019-05-11T22:20:09.655Z,2.70
2019-05-11T22:22:38.874Z,6.40
2019-05-11T22:25:08.899Z,4.47
2019-05-11T22:27:38.699Z,3.33
2019-05-11T22:30:08.644Z,4.37
2019-05-11T22:32:38.314Z,4.40
2019-05-11T22:35:08.909Z,3.80
2019-05-11T22:37:38.640Z,4.70
2019-05-11T22:40:09.397Z,6.35
2019-05-11T22:42:38.271Z,4.33
2019-05-11T22:45:08.591Z,4.92
2019-05-11T22:47:39.137Z,5.17
2019-05-11T22:50:09.140Z,7.30
2019-05-11T22:52:40.293Z,5.28
2019-05-11T22:55:11.942Z,3.97
2019-05-11T22:57:39.156Z,4.20
2019-05-11T23:00:09.670Z,4.72
2019-05-11T23:02:38.548Z,5.70
2019-05-11T23:05:08.840Z,5.60
2019-05-11T23:07:41.166Z,8.33
2019-05-11T23:10:09.436Z,6.20
2019-05-11T23:12:38.523Z,5.83
2019-05-11T23:15:12.472Z,5.80
2019-05-11T23:17:41.163Z,5.15
2019-05-11T23:20:10.605Z,4.55
2019-05-11T23:22:56.709Z,5.10
2019-05-11T23:25:18.620Z,5.08
2019-05-11T23:27:48.551Z,7.25
2019-05-11T23:30:19.651Z,6.05
2019-05-11T23:32:48.820Z,5.58
2019-05-11T23:35:18.859Z,6.92
2019-05-11T23:37:49.620Z,8.83
2019-05-11T23:40:19.887Z,5.58
2019-05-11T23:42:49.208Z,4.25
2019-05-11T23:45:19.037Z,5.22
2019-05-11T23:47:48.693Z,5.95
2019-05-11T23:50:19.063Z,4.15
2019-05-11T23:52:53.196Z,5.13
2019-05-11T23:55:19.168Z,6.53
2019-05-11T23:57:48.585Z,5.28
